sensor_id;sensor_type;location;lat;lon;timestamp;pressure;altitude;pressure_sealevel;temperature;humidity
60337;BME280;46978;50.288;28.624;2023-07-13T00:00:43;98715.36;;;16.73;90.85
60337;BME280;46978;50.288;28.624;2023-07-13T00:01:44;98708.50;;;16.71;90.79
60337;BME280;46978;50.288;28.624;2023-07-13T00:02:46;98708.42;;;16.72;90.67
60337;BME280;46978;50.288;28.624;2023-07-13T00:03:48;98711.88;;;16.73;90.64
60337;BME280;46978;50.288;28.624;2023-07-13T00:04:49;98715.36;;;16.73;90.57
60337;BME280;46978;50.288;28.624;2023-07-13T00:05:59;98716.19;;;16.74;90.56
60337;BME280;46978;50.288;28.624;2023-07-13T00:07:01;98719.65;;;16.74;90.55
60337;BME280;46978;50.288;28.624;2023-07-13T00:08:03;98712.66;;;16.75;90.52
60337;BME280;46978;50.288;28.624;2023-07-13T00:09:05;98707.42;;;16.75;90.34
60337;BME280;46978;50.288;28.624;2023-07-13T00:10:08;98714.33;;;16.76;90.45
60337;BME280;46978;50.288;28.624;2023-07-13T00:11:09;98708.25;;;16.75;90.21
60337;BME280;46978;50.288;28.624;2023-07-13T00:12:27;98707.34;;;16.76;90.27
60337;BME280;46978;50.288;28.624;2023-07-13T00:13:29;98710.88;;;16.75;90.07
60337;BME280;46978;50.288;28.624;2023-07-13T00:14:31;98716.03;;;16.77;89.93
60337;BME280;46978;50.288;28.624;2023-07-13T00:15:34;98709.79;;;16.79;89.80
60337;BME280;46978;50.288;28.624;2023-07-13T00:16:37;98709.79;;;16.79;89.68
60337;BME280;46978;50.288;28.624;2023-07-13T00:17:39;98702.77;;;16.80;89.71
60337;BME280;46978;50.288;28.624;2023-07-13T00:18:41;98700.23;;;16.78;89.51
60337;BME280;46978;50.288;28.624;2023-07-13T00:19:43;98707.17;;;16.79;89.46
60337;BME280;46978;50.288;28.624;2023-07-13T00:20:45;98699.39;;;16.78;89.62
60337;BME280;46978;50.288;28.624;2023-07-13T00:21:47;98705.55;;;16.77;89.49
60337;BME280;46978;50.288;28.624;2023-07-13T00:22:49;98708.17;;;16.77;89.36
60337;BME280;46978;50.288;28.624;2023-07-13T00:23:50;98709.00;;;16.77;89.34
60337;BME280;46978;50.288;28.624;2023-07-13T00:24:53;98707.25;;;16.78;89.35
60337;BME280;46978;50.288;28.624;2023-07-13T00:25:55;98702.02;;;16.78;89.35
60337;BME280;46978;50.288;28.624;2023-07-13T00:26:56;98707.17;;;16.79;89.39
60337;BME280;46978;50.288;28.624;2023-07-13T00:27:58;98703.59;;;16.80;89.26
60337;BME280;46978;50.288;28.624;2023-07-13T00:29:00;98704.55;;;16.79;89.10
60337;BME280;46978;50.288;28.624;2023-07-13T00:30:02;98694.91;;;16.80;89.06
60337;BME280;46978;50.288;28.624;2023-07-13T00:31:04;98702.77;;;16.80;88.97
60337;BME280;46978;50.288;28.624;2023-07-13T00:32:06;98700.98;;;16.80;88.77
60337;BME280;46978;50.288;28.624;2023-07-13T00:33:08;98703.59;;;16.80;88.72
60337;BME280;46978;50.288;28.624;2023-07-13T00:34:10;98703.52;;;16.82;88.53
60337;BME280;46978;50.288;28.624;2023-07-13T00:35:14;98706.13;;;16.82;88.60
60337;BME280;46978;50.288;28.624;2023-07-13T00:36:16;98696.52;;;16.82;88.62
60337;BME280;46978;50.288;28.624;2023-07-13T00:37:19;98700.89;;;16.82;88.59
60337;BME280;46978;50.288;28.624;2023-07-13T00:38:20;98702.59;;;16.83;88.47
60337;BME280;46978;50.288;28.624;2023-07-13T00:39:42;98696.52;;;16.82;88.46
60337;BME280;46978;50.288;28.624;2023-07-13T00:40:44;98704.30;;;16.84;88.50
60337;BME280;46978;50.288;28.624;2023-07-13T00:41:45;98701.68;;;16.84;88.35
60337;BME280;46978;50.288;28.624;2023-07-13T00:42:47;98705.13;;;16.84;88.37
60337;BME280;46978;50.288;28.624;2023-07-13T00:43:48;98699.06;;;16.84;88.39
60337;BME280;46978;50.288;28.624;2023-07-13T00:46:16;98700.81;;;16.83;88.34
60337;BME280;46978;50.288;28.624;2023-07-13T00:46:18;98699.89;;;16.84;88.27
60337;BME280;46978;50.288;28.624;2023-07-13T00:47:19;98695.57;;;16.83;88.20
60337;BME280;46978;50.288;28.624;2023-07-13T00:48:24;98696.44;;;16.84;88.23
60337;BME280;46978;50.288;28.624;2023-07-13T00:49:28;98697.27;;;16.84;88.22
60337;BME280;46978;50.288;28.624;2023-07-13T00:50:31;98693.73;;;16.85;88.22
60337;BME280;46978;50.288;28.624;2023-07-13T00:51:39;98701.59;;;16.85;88.21
60337;BME280;46978;50.288;28.624;2023-07-13T00:52:43;98695.44;;;16.87;88.25
60337;BME280;46978;50.288;28.624;2023-07-13T00:53:45;98687.58;;;16.87;88.15
60337;BME280;46978;50.288;28.624;2023-07-13T00:54:47;98687.58;;;16.87;88.07
60337;BME280;46978;50.288;28.624;2023-07-13T00:55:50;98687.58;;;16.87;88.01
60337;BME280;46978;50.288;28.624;2023-07-13T00:56:55;98686.66;;;16.88;87.94
60337;BME280;46978;50.288;28.624;2023-07-13T00:57:58;98675.34;;;16.87;88.06
60337;BME280;46978;50.288;28.624;2023-07-13T00:59:01;98678.88;;;16.86;88.06
60337;BME280;46978;50.288;28.624;2023-07-13T01:00:06;98681.41;;;16.88;87.98
60337;BME280;46978;50.288;28.624;2023-07-13T01:01:08;98685.82;;;16.87;87.98
60337;BME280;46978;50.288;28.624;2023-07-13T01:02:10;98688.44;;;16.87;87.85
60337;BME280;46978;50.288;28.624;2023-07-13T01:03:12;98687.49;;;16.88;87.75
60337;BME280;46978;50.288;28.624;2023-07-13T01:04:14;98688.36;;;16.89;87.77
60337;BME280;46978;50.288;28.624;2023-07-13T01:05:18;98688.27;;;16.90;87.73
60337;BME280;46978;50.288;28.624;2023-07-13T01:06:21;98689.11;;;16.91;87.78
60337;BME280;46978;50.288;28.624;2023-07-13T01:07:23;98689.02;;;16.92;87.74
60337;BME280;46978;50.288;28.624;2023-07-13T01:08:24;98687.23;;;16.93;87.58
60337;BME280;46978;50.288;28.624;2023-07-13T01:09:26;98688.11;;;16.93;87.66
60337;BME280;46978;50.288;28.624;2023-07-13T01:10:29;98692.39;;;16.94;87.69
60337;BME280;46978;50.288;28.624;2023-07-13T01:11:31;98691.48;;;16.95;87.65
60337;BME280;46978;50.288;28.624;2023-07-13T01:12:33;98689.69;;;16.96;87.44
60337;BME280;46978;50.288;28.624;2023-07-13T01:13:34;98689.69;;;16.96;87.59
60337;BME280;46978;50.288;28.624;2023-07-13T01:14:36;98688.77;;;16.97;87.66
60337;BME280;46978;50.288;28.624;2023-07-13T01:15:44;98692.23;;;16.97;87.58
60337;BME280;46978;50.288;28.624;2023-07-13T01:16:47;98684.36;;;16.97;87.64
60337;BME280;46978;50.288;28.624;2023-07-13T01:17:48;98686.06;;;16.98;87.66
60337;BME280;46978;50.288;28.624;2023-07-13T01:18:56;98685.14;;;16.99;87.54
60337;BME280;46978;50.288;28.624;2023-07-13T01:19:58;98684.28;;;16.99;87.43
60337;BME280;46978;50.288;28.624;2023-07-13T01:21:02;98679.04;;;16.99;87.53
60337;BME280;46978;50.288;28.624;2023-07-13T01:22:23;98675.58;;;16.98;87.51
60337;BME280;46978;50.288;28.624;2023-07-13T01:23:27;98676.50;;;16.97;87.47
60337;BME280;46978;50.288;28.624;2023-07-13T01:24:29;98677.28;;;16.99;87.45
60337;BME280;46978;50.288;28.624;2023-07-13T01:25:30;98676.33;;;17.00;87.25
60337;BME280;46978;50.288;28.624;2023-07-13T01:26:32;98676.33;;;17.00;87.20
60337;BME280;46978;50.288;28.624;2023-07-13T01:27:34;98672.79;;;17.01;87.24
60337;BME280;46978;50.288;28.624;2023-07-13T01:28:35;98672.79;;;17.01;87.24
60337;BME280;46978;50.288;28.624;2023-07-13T01:29:38;98671.09;;;17.00;87.10
60337;BME280;46978;50.288;28.624;2023-07-13T01:30:40;98668.38;;;17.02;87.21
60337;BME280;46978;50.288;28.624;2023-07-13T01:31:42;98667.55;;;17.01;87.13
60337;BME280;46978;50.288;28.624;2023-07-13T01:32:43;98671.00;;;17.02;87.13
60337;BME280;46978;50.288;28.624;2023-07-13T01:33:45;98669.25;;;17.02;87.18
60337;BME280;46978;50.288;28.624;2023-07-13T01:34:46;98679.73;;;17.02;87.16
60337;BME280;46978;50.288;28.624;2023-07-13T01:35:48;98673.54;;;17.03;87.21
60337;BME280;46978;50.288;28.624;2023-07-13T01:36:50;98681.41;;;17.03;87.20
60337;BME280;46978;50.288;28.624;2023-07-13T01:37:52;98672.70;;;17.03;87.11
60337;BME280;46978;50.288;28.624;2023-07-13T01:38:53;98672.63;;;17.05;87.12
60337;BME280;46978;50.288;28.624;2023-07-13T01:39:55;98676.16;;;17.03;87.14
60337;BME280;46978;50.288;28.624;2023-07-13T01:40:57;98688.34;;;17.05;87.40
60337;BME280;46978;50.288;28.624;2023-07-13T01:41:58;98677.86;;;17.05;87.30
60337;BME280;46978;50.288;28.624;2023-07-13T01:43:00;98682.19;;;17.06;87.35
60337;BME280;46978;50.288;28.624;2023-07-13T01:44:02;98681.31;;;17.05;87.37
60337;BME280;46978;50.288;28.624;2023-07-13T01:45:05;98682.09;;;17.07;87.08
60337;BME280;46978;50.288;28.624;2023-07-13T01:46:07;98676.77;;;17.09;86.78
60337;BME280;46978;50.288;28.624;2023-07-13T01:47:08;98685.47;;;17.09;86.61
60337;BME280;46978;50.288;28.624;2023-07-13T01:48:10;98685.38;;;17.11;86.65
60337;BME280;46978;50.288;28.624;2023-07-13T01:49:12;98681.84;;;17.12;86.27
60337;BME280;46978;50.288;28.624;2023-07-13T01:50:14;98686.88;;;17.15;86.06
60337;BME280;46978;50.288;28.624;2023-07-13T01:51:16;98677.27;;;17.15;85.77
60337;BME280;46978;50.288;28.624;2023-07-13T01:52:18;98674.55;;;17.17;85.74
60337;BME280;46978;50.288;28.624;2023-07-13T01:53:19;98670.98;;;17.18;85.56
60337;BME280;46978;50.288;28.624;2023-07-13T01:54:21;98687.48;;;17.20;85.18
60337;BME280;46978;50.288;28.624;2023-07-13T01:55:23;98685.62;;;17.22;84.76
60337;BME280;46978;50.288;28.624;2023-07-13T01:56:25;98682.91;;;17.24;84.57
60337;BME280;46978;50.288;28.624;2023-07-13T01:57:26;98682.82;;;17.25;84.39
60337;BME280;46978;50.288;28.624;2023-07-13T01:58:47;98687.89;;;17.28;83.99
60337;BME280;46978;50.288;28.624;2023-07-13T01:59:49;98691.27;;;17.30;83.70
60337;BME280;46978;50.288;28.624;2023-07-13T02:00:51;98691.17;;;17.32;83.67
60337;BME280;46978;50.288;28.624;2023-07-13T02:01:53;98685.84;;;17.33;83.39
60337;BME280;46978;50.288;28.624;2023-07-13T02:02:55;98681.38;;;17.35;83.32
60337;BME280;46978;50.288;28.624;2023-07-13T02:03:57;98676.13;;;17.35;83.21
60337;BME280;46978;50.288;28.624;2023-07-13T02:04:58;98675.09;;;17.38;82.87
60337;BME280;46978;50.288;28.624;2023-07-13T02:06:00;98678.58;;;17.38;82.51
60337;BME280;46978;50.288;28.624;2023-07-13T02:07:02;98667.14;;;17.39;82.32
60337;BME280;46978;50.288;28.624;2023-07-13T02:08:04;98667.91;;;17.42;82.16
60337;BME280;46978;50.288;28.624;2023-07-13T02:09:05;98678.41;;;17.42;82.33
60337;BME280;46978;50.288;28.624;2023-07-13T02:10:09;98673.91;;;17.44;82.26
60337;BME280;46978;50.288;28.624;2023-07-13T02:11:11;98677.36;;;17.44;81.92
60337;BME280;46978;50.288;28.624;2023-07-13T02:12:13;98668.57;;;17.45;82.07
60337;BME280;46978;50.288;28.624;2023-07-13T02:13:14;98674.66;;;17.46;82.10
60337;BME280;46978;50.288;28.624;2023-07-13T02:14:16;98671.94;;;17.47;82.33
60337;BME280;46978;50.288;28.624;2023-07-13T02:15:17;98673.73;;;17.47;82.33
60337;BME280;46978;50.288;28.624;2023-07-13T02:16:19;98685.92;;;17.48;82.35
60337;BME280;46978;50.288;28.624;2023-07-13T02:17:21;98676.35;;;17.47;82.37
60337;BME280;46978;50.288;28.624;2023-07-13T02:18:23;98670.93;;;17.50;82.34
60337;BME280;46978;50.288;28.624;2023-07-13T02:19:24;98676.27;;;17.48;82.31
60337;BME280;46978;50.288;28.624;2023-07-13T02:20:26;98677.97;;;17.49;82.67
60337;BME280;46978;50.288;28.624;2023-07-13T02:21:28;98677.97;;;17.49;82.67
60337;BME280;46978;50.288;28.624;2023-07-13T02:22:30;98676.17;;;17.50;82.94
60337;BME280;46978;50.288;28.624;2023-07-13T02:23:32;98668.31;;;17.50;83.03
60337;BME280;46978;50.288;28.624;2023-07-13T02:24:33;98672.63;;;17.51;83.05
60337;BME280;46978;50.288;28.624;2023-07-13T02:25:35;98664.77;;;17.51;83.14
60337;BME280;46978;50.288;28.624;2023-07-13T02:26:37;98667.39;;;17.51;83.18
60337;BME280;46978;50.288;28.624;2023-07-13T02:27:38;98680.50;;;17.51;83.21
60337;BME280;46978;50.288;28.624;2023-07-13T02:28:40;98670.01;;;17.51;83.37
60337;BME280;46978;50.288;28.624;2023-07-13T02:29:42;98670.84;;;17.51;83.16
60337;BME280;46978;50.288;28.624;2023-07-13T02:30:44;98669.92;;;17.52;84.06
60337;BME280;46978;50.288;28.624;2023-07-13T02:31:45;98668.22;;;17.51;84.29
60337;BME280;46978;50.288;28.624;2023-07-13T02:32:47;98662.14;;;17.51;84.62
60337;BME280;46978;50.288;28.624;2023-07-13T02:33:49;98662.97;;;17.51;85.15
60337;BME280;46978;50.288;28.624;2023-07-13T02:34:50;98664.77;;;17.51;85.58
60337;BME280;46978;50.288;28.624;2023-07-13T02:35:52;98660.44;;;17.50;85.80
60337;BME280;46978;50.288;28.624;2023-07-13T02:36:54;98652.57;;;17.50;85.71
60337;BME280;46978;50.288;28.624;2023-07-13T02:37:55;98656.20;;;17.47;85.99
60337;BME280;46978;50.288;28.624;2023-07-13T02:39:02;98651.83;;;17.48;86.04
60337;BME280;46978;50.288;28.624;2023-07-13T02:40:05;98653.67;;;17.46;85.98
60337;BME280;46978;50.288;28.624;2023-07-13T02:41:08;98645.89;;;17.44;86.10
60337;BME280;46978;50.288;28.624;2023-07-13T02:42:09;98649.47;;;17.43;85.96
60337;BME280;46978;50.288;28.624;2023-07-13T02:43:11;98642.52;;;17.42;86.03
60337;BME280;46978;50.288;28.624;2023-07-13T02:44:13;98649.55;;;17.42;86.31
60337;BME280;46978;50.288;28.624;2023-07-13T02:45:15;98642.70;;;17.39;86.55
60337;BME280;46978;50.288;28.624;2023-07-13T02:46:17;98646.16;;;17.39;86.47
60337;BME280;46978;50.288;28.624;2023-07-13T02:47:18;98647.11;;;17.38;86.52
60337;BME280;46978;50.288;28.624;2023-07-13T02:48:20;98644.48;;;17.38;86.61
60337;BME280;46978;50.288;28.624;2023-07-13T02:49:22;98652.36;;;17.38;86.90
60337;BME280;46978;50.288;28.624;2023-07-13T02:50:24;98642.05;;;17.35;87.03
60337;BME280;46978;50.288;28.624;2023-07-13T02:51:26;98650.00;;;17.34;87.03
60337;BME280;46978;50.288;28.624;2023-07-13T02:52:28;98648.30;;;17.33;87.04
60337;BME280;46978;50.288;28.624;2023-07-13T02:53:29;98647.46;;;17.32;87.17
60337;BME280;46978;50.288;28.624;2023-07-13T02:54:31;98638.64;;;17.33;87.51
60337;BME280;46978;50.288;28.624;2023-07-13T02:55:33;98639.59;;;17.32;87.69
60337;BME280;46978;50.288;28.624;2023-07-13T02:56:35;98636.97;;;17.32;87.72
60337;BME280;46978;50.288;28.624;2023-07-13T02:57:36;98632.56;;;17.33;87.97
60337;BME280;46978;50.288;28.624;2023-07-13T02:58:38;98631.64;;;17.34;88.01
60337;BME280;46978;50.288;28.624;2023-07-13T02:59:39;98636.89;;;17.34;88.05
60337;BME280;46978;50.288;28.624;2023-07-13T03:00:41;98634.17;;;17.35;88.17
60337;BME280;46978;50.288;28.624;2023-07-13T03:01:42;98632.39;;;17.36;88.25
60337;BME280;46978;50.288;28.624;2023-07-13T03:02:44;98632.39;;;17.36;88.33
60337;BME280;46978;50.288;28.624;2023-07-13T03:03:46;98638.38;;;17.38;88.23
60337;BME280;46978;50.288;28.624;2023-07-13T03:04:47;98636.63;;;17.38;88.30
60337;BME280;46978;50.288;28.624;2023-07-13T03:05:57;98637.37;;;17.41;88.08
60337;BME280;46978;50.288;28.624;2023-07-13T03:06:54;98637.45;;;17.39;88.37
60337;BME280;46978;50.288;28.624;2023-07-13T03:07:56;98625.17;;;17.39;88.39
60337;BME280;46978;50.288;28.624;2023-07-13T03:08:57;98630.33;;;17.41;88.20
60337;BME280;46978;50.288;28.624;2023-07-13T03:09:59;98629.50;;;17.41;88.22
60337;BME280;46978;50.288;28.624;2023-07-13T03:11:07;98632.86;;;17.43;87.97
60337;BME280;46978;50.288;28.624;2023-07-13T03:12:06;98644.05;;;17.46;87.98
60337;BME280;46978;50.288;28.624;2023-07-13T03:13:08;98630.84;;;17.48;88.06
60337;BME280;46978;50.288;28.624;2023-07-13T03:14:09;98634.12;;;17.51;87.92
60337;BME280;46978;50.288;28.624;2023-07-13T03:15:11;98634.69;;;17.56;87.69
60337;BME280;46978;50.288;28.624;2023-07-13T03:16:13;98631.80;;;17.61;87.17
60337;BME280;46978;50.288;28.624;2023-07-13T03:17:16;98635.49;;;17.87;86.61
60337;BME280;46978;50.288;28.624;2023-07-13T03:18:17;98627.68;;;18.16;85.76
60337;BME280;46978;50.288;28.624;2023-07-13T03:19:19;98637.72;;;18.24;84.77
60337;BME280;46978;50.288;28.624;2023-07-13T03:20:21;98643.14;;;18.35;84.13
60337;BME280;46978;50.288;28.624;2023-07-13T03:21:22;98643.02;;;18.66;83.10
60337;BME280;46978;50.288;28.624;2023-07-13T03:22:24;98643.81;;;18.80;81.72
60337;BME280;46978;50.288;28.624;2023-07-13T03:23:26;98646.19;;;18.85;81.09
60337;BME280;46978;50.288;28.624;2023-07-13T03:24:27;98638.97;;;18.89;80.66
60337;BME280;46978;50.288;28.624;2023-07-13T03:25:29;98642.23;;;18.92;80.10
60337;BME280;46978;50.288;28.624;2023-07-13T03:26:31;98642.34;;;18.91;79.78
60337;BME280;46978;50.288;28.624;2023-07-13T03:27:32;98641.70;;;18.87;79.50
60337;BME280;46978;50.288;28.624;2023-07-13T03:28:34;98637.47;;;18.85;79.39
60337;BME280;46978;50.288;28.624;2023-07-13T03:29:36;98642.53;;;18.88;79.27
60337;BME280;46978;50.288;28.624;2023-07-13T03:30:38;98641.86;;;18.84;79.02
60337;BME280;46978;50.288;28.624;2023-07-13T03:31:40;98646.46;;;18.95;79.07
60337;BME280;46978;50.288;28.624;2023-07-13T03:32:42;98651.77;;;19.08;78.34
60337;BME280;46978;50.288;28.624;2023-07-13T03:33:44;98652.20;;;19.14;78.20
60337;BME280;46978;50.288;28.624;2023-07-13T03:34:46;98647.14;;;19.11;77.95
60337;BME280;46978;50.288;28.624;2023-07-13T03:35:47;98650.83;;;19.09;77.84
60337;BME280;46978;50.288;28.624;2023-07-13T03:36:49;98653.76;;;19.04;77.87
60337;BME280;46978;50.288;28.624;2023-07-13T03:37:51;98647.94;;;18.99;78.13
60337;BME280;46978;50.288;28.624;2023-07-13T03:38:55;98659.70;;;18.93;78.12
60337;BME280;46978;50.288;28.624;2023-07-13T03:39:57;98654.84;;;18.87;78.20
60337;BME280;46978;50.288;28.624;2023-07-13T03:40:59;98659.49;;;18.82;78.46
60337;BME280;46978;50.288;28.624;2023-07-13T03:42:01;98661.67;;;18.75;78.57
60337;BME280;46978;50.288;28.624;2023-07-13T03:43:03;98662.80;;;18.71;79.01
60337;BME280;46978;50.288;28.624;2023-07-13T03:44:05;98667.51;;;18.66;79.34
60337;BME280;46978;50.288;28.624;2023-07-13T03:45:07;98665.91;;;18.63;79.29
60337;BME280;46978;50.288;28.624;2023-07-13T03:46:10;98672.22;;;18.61;79.26
60337;BME280;46978;50.288;28.624;2023-07-13T03:47:11;98671.45;;;18.59;79.34
60337;BME280;46978;50.288;28.624;2023-07-13T03:48:14;98675.13;;;18.56;79.51
60337;BME280;46978;50.288;28.624;2023-07-13T03:49:15;98670.90;;;18.54;79.48
60337;BME280;46978;50.288;28.624;2023-07-13T03:50:17;98673.72;;;18.51;79.43
60337;BME280;46978;50.288;28.624;2023-07-13T03:51:20;98672.98;;;18.49;79.70
60337;BME280;46978;50.288;28.624;2023-07-13T03:52:21;98679.99;;;18.48;80.22
60337;BME280;46978;50.288;28.624;2023-07-13T03:53:23;98678.23;;;18.49;80.03
60337;BME280;46978;50.288;28.624;2023-07-13T03:54:25;98676.63;;;18.46;80.06
60337;BME280;46978;50.288;28.624;2023-07-13T03:55:26;98681.05;;;18.45;80.66
60337;BME280;46978;50.288;28.624;2023-07-13T03:56:29;98678.42;;;18.45;80.54
60337;BME280;46978;50.288;28.624;2023-07-13T03:57:31;98676.63;;;18.46;80.79
60337;BME280;46978;50.288;28.624;2023-07-13T03:58:38;98668.75;;;18.46;80.88
60337;BME280;46978;50.288;28.624;2023-07-13T03:59:40;98674.00;;;18.46;80.89
60337;BME280;46978;50.288;28.624;2023-07-13T04:00:42;98667.91;;;18.45;80.91
60337;BME280;46978;50.288;28.624;2023-07-13T04:01:44;98665.28;;;18.45;80.75
60337;BME280;46978;50.288;28.624;2023-07-13T04:02:45;98670.54;;;18.45;80.76
60337;BME280;46978;50.288;28.624;2023-07-13T04:03:47;98662.75;;;18.44;80.83
60337;BME280;46978;50.288;28.624;2023-07-13T04:04:48;98657.59;;;18.42;80.96
60337;BME280;46978;50.288;28.624;2023-07-13T04:05:50;98653.17;;;18.43;81.00
60337;BME280;46978;50.288;28.624;2023-07-13T04:06:52;98654.97;;;18.42;81.19
60337;BME280;46978;50.288;28.624;2023-07-13T04:07:53;98650.55;;;18.43;81.09
60337;BME280;46978;50.288;28.624;2023-07-13T04:08:58;98654.04;;;18.43;81.09
60337;BME280;46978;50.288;28.624;2023-07-13T04:09:59;98655.70;;;18.44;81.21
60337;BME280;46978;50.288;28.624;2023-07-13T04:11:04;98663.49;;;18.46;81.38
60337;BME280;46978;50.288;28.624;2023-07-13T04:12:06;98662.56;;;18.47;81.37
60337;BME280;46978;50.288;28.624;2023-07-13T04:13:08;98654.49;;;18.50;81.32
60337;BME280;46978;50.288;28.624;2023-07-13T04:14:10;98662.28;;;18.52;81.34
60337;BME280;46978;50.288;28.624;2023-07-13T04:15:12;98659.46;;;18.55;81.33
60337;BME280;46978;50.288;28.624;2023-07-13T04:16:15;98662.64;;;18.60;81.20
60337;BME280;46978;50.288;28.624;2023-07-13T04:17:17;98669.40;;;18.64;81.19
60337;BME280;46978;50.288;28.624;2023-07-13T04:18:19;98659.53;;;18.68;81.13
60337;BME280;46978;50.288;28.624;2023-07-13T04:19:21;98660.08;;;18.73;80.94
60337;BME280;46978;50.288;28.624;2023-07-13T04:20:24;98661.67;;;18.75;80.94
60337;BME280;46978;50.288;28.624;2023-07-13T04:21:27;98666.73;;;18.78;80.49
60337;BME280;46978;50.288;28.624;2023-07-13T04:22:29;98663.91;;;18.81;80.37
60337;BME280;46978;50.288;28.624;2023-07-13T04:23:30;98663.82;;;18.83;80.35
60337;BME280;46978;50.288;28.624;2023-07-13T04:24:32;98660.93;;;18.88;80.34
60337;BME280;46978;50.288;28.624;2023-07-13T04:25:34;98669.55;;;18.90;80.37
60337;BME280;46978;50.288;28.624;2023-07-13T04:26:35;98668.52;;;18.92;80.15
60337;BME280;46978;50.288;28.624;2023-07-13T04:27:37;98670.03;;;18.96;79.95
60337;BME280;46978;50.288;28.624;2023-07-13T04:28:38;98668.97;;;18.99;79.83
60337;BME280;46978;50.288;28.624;2023-07-13T04:29:40;98674.03;;;19.02;79.59
60337;BME280;46978;50.288;28.624;2023-07-13T04:30:42;98669.53;;;19.04;79.44
60337;BME280;46978;50.288;28.624;2023-07-13T04:31:43;98671.11;;;19.07;79.25
60337;BME280;46978;50.288;28.624;2023-07-13T04:32:45;98673.64;;;19.08;78.92
60337;BME280;46978;50.288;28.624;2023-07-13T04:33:47;98676.17;;;19.10;79.04
60337;BME280;46978;50.288;28.624;2023-07-13T04:34:49;98674.41;;;19.10;78.90
60337;BME280;46978;50.288;28.624;2023-07-13T04:35:52;98678.50;;;19.14;78.67
60337;BME280;46978;50.288;28.624;2023-07-13T04:36:54;98678.50;;;19.14;78.67
60337;BME280;46978;50.288;28.624;2023-07-13T04:37:55;98674.11;;;19.15;78.52
60337;BME280;46978;50.288;28.624;2023-07-13T04:38:57;98667.88;;;19.16;78.10
60337;BME280;46978;50.288;28.624;2023-07-13T04:39:58;98673.91;;;19.18;78.26
60337;BME280;46978;50.288;28.624;2023-07-13T04:41:03;98674.64;;;19.20;78.07
60337;BME280;46978;50.288;28.624;2023-07-13T04:42:05;98677.17;;;19.22;78.06
60337;BME280;46978;50.288;28.624;2023-07-13T04:43:07;98683.27;;;19.22;77.98
60337;BME280;46978;50.288;28.624;2023-07-13T04:44:09;98678.00;;;19.22;77.96
60337;BME280;46978;50.288;28.624;2023-07-13T04:45:10;98681.40;;;19.24;78.10
60337;BME280;46978;50.288;28.624;2023-07-13T04:46:15;98682.23;;;19.25;77.78
60337;BME280;46978;50.288;28.624;2023-07-13T04:47:18;98690.76;;;19.28;77.77
60337;BME280;46978;50.288;28.624;2023-07-13T04:48:20;98683.73;;;19.29;77.84
60337;BME280;46978;50.288;28.624;2023-07-13T04:49:21;98685.30;;;19.31;77.86
60337;BME280;46978;50.288;28.624;2023-07-13T04:50:23;98684.37;;;19.32;77.64
60337;BME280;46978;50.288;28.624;2023-07-13T04:51:25;98686.16;;;19.32;77.85
60337;BME280;46978;50.288;28.624;2023-07-13T04:52:26;98687.00;;;19.32;77.56
60337;BME280;46978;50.288;28.624;2023-07-13T04:53:29;98687.93;;;19.31;77.52
60337;BME280;46978;50.288;28.624;2023-07-13T04:54:31;98682.67;;;19.31;77.27
60337;BME280;46978;50.288;28.624;2023-07-13T04:55:33;98689.63;;;19.32;77.03
60337;BME280;46978;50.288;28.624;2023-07-13T04:56:35;98686.90;;;19.34;77.04
60337;BME280;46978;50.288;28.624;2023-07-13T04:57:36;98692.06;;;19.35;77.18
60337;BME280;46978;50.288;28.624;2023-07-13T04:58:38;98692.80;;;19.38;76.89
60337;BME280;46978;50.288;28.624;2023-07-13T04:59:39;98687.53;;;19.38;77.02
60337;BME280;46978;50.288;28.624;2023-07-13T05:00:41;98690.06;;;19.39;76.59
60337;BME280;46978;50.288;28.624;2023-07-13T05:01:43;98689.13;;;19.40;76.42
60337;BME280;46978;50.288;28.624;2023-07-13T05:03:49;98685.36;;;19.44;76.31
60337;BME280;46978;50.288;28.624;2023-07-13T05:04:50;98687.80;;;19.47;76.01
60337;BME280;46978;50.288;28.624;2023-07-13T05:05:56;98687.70;;;19.49;76.01
60337;BME280;46978;50.288;28.624;2023-07-13T05:06:59;98686.62;;;19.51;76.07
60337;BME280;46978;50.288;28.624;2023-07-13T05:08:00;98690.86;;;19.54;76.10
60337;BME280;46978;50.288;28.624;2023-07-13T05:09:02;98684.56;;;19.57;76.07
60337;BME280;46978;50.288;28.624;2023-07-13T05:10:05;98685.19;;;19.60;76.05
60337;BME280;46978;50.288;28.624;2023-07-13T05:11:07;98684.05;;;19.64;75.69
60337;BME280;46978;50.288;28.624;2023-07-13T05:12:09;98678.48;;;19.69;75.76
60337;BME280;46978;50.288;28.624;2023-07-13T05:13:10;98672.80;;;19.75;75.49
60337;BME280;46978;50.288;28.624;2023-07-13T05:14:12;98676.93;;;19.79;75.02
60337;BME280;46978;50.288;28.624;2023-07-13T05:15:14;98681.88;;;19.84;74.96
60337;BME280;46978;50.288;28.624;2023-07-13T05:16:16;98679.67;;;19.91;75.15
60337;BME280;46978;50.288;28.624;2023-07-13T05:17:18;98673.16;;;19.96;74.84
60337;BME280;46978;50.288;28.624;2023-07-13T05:18:20;98670.11;;;20.02;74.40
60337;BME280;46978;50.288;28.624;2023-07-13T05:19:21;98675.89;;;20.08;74.46
60337;BME280;46978;50.288;28.624;2023-07-13T05:20:23;98671.17;;;20.13;74.10
60337;BME280;46978;50.288;28.624;2023-07-13T05:21:24;98670.96;;;20.16;73.97
60337;BME280;46978;50.288;28.624;2023-07-13T05:22:26;98664.41;;;20.21;74.22
60337;BME280;46978;50.288;28.624;2023-07-13T05:23:29;98669.25;;;20.28;74.13
60337;BME280;46978;50.288;28.624;2023-07-13T05:24:31;98673.16;;;20.35;73.70
60337;BME280;46978;50.288;28.624;2023-07-13T05:25:32;98674.53;;;20.40;73.57
60337;BME280;46978;50.288;28.624;2023-07-13T05:26:34;98672.30;;;20.47;73.81
60337;BME280;46978;50.288;28.624;2023-07-13T05:27:36;98672.70;;;20.54;73.41